sensor_id;sensor_type;location;lat;lon;timestamp;pressure;altitude;pressure_sealevel;temperature;humidity
72950;BME280;64868;45.710;9.590;2023-09-19T00:01:22;98645.50;;;18.89;100.00
72950;BME280;64868;45.710;9.590;2023-09-19T00:03:55;98639.97;;;18.89;100.00
72950;BME280;64868;45.710;9.590;2023-09-19T00:06:30;98637.06;;;18.91;100.00
72950;BME280;64868;45.710;9.590;2023-09-19T00:09:02;98644.50;;;18.90;100.00
72950;BME280;64868;45.710;9.590;2023-09-19T00:11:33;98627.56;;;18.85;100.00
72950;BME280;64868;45.710;9.590;2023-09-19T00:14:05;98630.31;;;18.93;100.00
72950;BME280;64868;45.710;9.590;2023-09-19T00:16:36;98622.88;;;18.94;100.00
72950;BME280;64868;45.710;9.590;2023-09-19T00:19:06;98623.09;;;18.84;100.00
72950;BME280;64868;45.710;9.590;2023-09-19T00:21:39;98627.91;;;18.82;100.00
72950;BME280;64868;45.710;9.590;2023-09-19T00:24:11;98623.09;;;18.84;100.00
72950;BME280;64868;45.710;9.590;2023-09-19T00:26:44;98629.66;;;18.83;100.00
72950;BME280;64868;45.710;9.590;2023-09-19T00:29:16;98622.91;;;18.78;100.00
72950;BME280;64868;45.710;9.590;2023-09-19T00:31:50;98633.09;;;18.77;100.00
72950;BME280;64868;45.710;9.590;2023-09-19T00:34:20;98626.50;;;18.70;100.00
72950;BME280;64868;45.710;9.590;2023-09-19T00:36:52;98625.84;;;18.68;100.00
72950;BME280;64868;45.710;9.590;2023-09-19T00:39:25;98615.28;;;18.63;100.00
72950;BME280;64868;45.710;9.590;2023-09-19T00:41:58;98622.03;;;18.77;100.00
72950;BME280;64868;45.710;9.590;2023-09-19T00:44:34;98614.63;;;18.78;100.00
72950;BME280;64868;45.710;9.590;2023-09-19T00:47:04;98608.38;;;18.67;100.00
72950;BME280;64868;45.710;9.590;2023-09-19T00:49:36;98611.31;;;18.82;100.00
72950;BME280;64868;45.710;9.590;2023-09-19T00:52:09;98619.63;;;18.82;100.00
72950;BME280;64868;45.710;9.590;2023-09-19T00:54:41;98613.22;;;18.82;100.00
72950;BME280;64868;45.710;9.590;2023-09-19T00:57:11;98616.53;;;18.77;100.00
72950;BME280;64868;45.710;9.590;2023-09-19T00:59:44;98613.06;;;18.75;100.00
72950;BME280;64868;45.710;9.590;2023-09-19T01:02:18;98625.50;;;18.79;100.00
72950;BME280;64868;45.710;9.590;2023-09-19T01:04:51;98630.69;;;18.74;100.00
72950;BME280;64868;45.710;9.590;2023-09-19T01:07:21;98630.31;;;18.69;100.00
72950;BME280;64868;45.710;9.590;2023-09-19T01:09:50;98636.88;;;18.68;100.00
72950;BME280;64868;45.710;9.590;2023-09-19T01:12:25;98637.75;;;18.60;100.00
72950;BME280;64868;45.710;9.590;2023-09-19T01:15:00;98640.66;;;18.59;100.00
72950;BME280;64868;45.710;9.590;2023-09-19T01:17:36;98628.56;;;18.52;100.00
72950;BME280;64868;45.710;9.590;2023-09-19T01:20:20;98634.28;;;18.58;100.00
72950;BME280;64868;45.710;9.590;2023-09-19T01:23:03;98641.19;;;18.62;100.00
72950;BME280;64868;45.710;9.590;2023-09-19T01:25:56;98645.84;;;18.62;100.00
72950;BME280;64868;45.710;9.590;2023-09-19T01:31:33;98635.31;;;18.57;100.00
72950;BME280;64868;45.710;9.590;2023-09-19T01:34:06;98641.69;;;18.58;100.00
72950;BME280;64868;45.710;9.590;2023-09-19T01:36:38;98643.09;;;18.62;100.00
72950;BME280;64868;45.710;9.590;2023-09-19T01:39:17;98642.38;;;18.60;100.00
72950;BME280;64868;45.710;9.590;2023-09-19T01:42:07;98645.13;;;18.60;100.00
72950;BME280;64868;45.710;9.590;2023-09-19T01:47:54;98648.28;;;18.57;100.00
72950;BME280;64868;45.710;9.590;2023-09-19T01:50:35;98625.13;;;18.50;100.00
72950;BME280;64868;45.710;9.590;2023-09-19T01:53:33;98642.91;;;18.55;100.00
72950;BME280;64868;45.710;9.590;2023-09-19T01:56:07;98643.97;;;18.70;100.00
72950;BME280;64868;45.710;9.590;2023-09-19T01:58:43;98650.50;;;18.53;100.00
72950;BME280;64868;45.710;9.590;2023-09-19T02:01:18;98640.13;;;18.55;100.00
72950;BME280;64868;45.710;9.590;2023-09-19T02:03:52;98652.41;;;18.53;100.00
72950;BME280;64868;45.710;9.590;2023-09-19T02:06:25;98646.19;;;18.42;100.00
72950;BME280;64868;45.710;9.590;2023-09-19T02:08:57;98645.66;;;18.39;100.00
72950;BME280;64868;45.710;9.590;2023-09-19T02:11:29;98647.38;;;18.40;100.00
72950;BME280;64868;45.710;9.590;2023-09-19T02:14:02;98648.94;;;18.34;100.00
72950;BME280;64868;45.710;9.590;2023-09-19T02:16:34;98646.19;;;18.34;100.00
72950;BME280;64868;45.710;9.590;2023-09-19T02:19:07;98653.06;;;18.30;100.00
72950;BME280;64868;45.710;9.590;2023-09-19T02:21:40;98648.94;;;18.26;100.00
72950;BME280;64868;45.710;9.590;2023-09-19T02:24:13;98637.00;;;18.17;100.00
72950;BME280;64868;45.710;9.590;2023-09-19T02:26:45;98648.94;;;18.26;100.00
72950;BME280;64868;45.710;9.590;2023-09-19T02:29:18;98655.66;;;18.32;100.00
72950;BME280;64868;45.710;9.590;2023-09-19T02:31:50;98643.22;;;18.28;100.00
72950;BME280;64868;45.710;9.590;2023-09-19T02:34:23;98638.06;;;18.33;100.00
72950;BME280;64868;45.710;9.590;2023-09-19T02:36:53;98639.28;;;18.38;100.00
72950;BME280;64868;45.710;9.590;2023-09-19T02:39:26;98639.44;;;18.37;100.00
72950;BME280;64868;45.710;9.590;2023-09-19T02:41:58;98641.34;;;18.36;100.00
72950;BME280;64868;45.710;9.590;2023-09-19T02:44:31;98637.03;;;18.34;100.00
72950;BME280;64868;45.710;9.590;2023-09-19T02:47:03;98638.91;;;18.33;100.00
72950;BME280;64868;45.710;9.590;2023-09-19T02:49:34;98646.31;;;18.33;100.00
72950;BME280;64868;45.710;9.590;2023-09-19T02:52:04;98638.56;;;18.28;100.00
72950;BME280;64868;45.710;9.590;2023-09-19T02:54:37;98641.31;;;18.28;100.00
72950;BME280;64868;45.710;9.590;2023-09-19T02:57:10;98647.56;;;18.38;100.00
72950;BME280;64868;45.710;9.590;2023-09-19T02:59:39;98644.28;;;18.35;99.81
72950;BME280;64868;45.710;9.590;2023-09-19T03:02:12;98636.53;;;18.38;100.00
72950;BME280;64868;45.710;9.590;2023-09-19T03:04:45;98636.16;;;18.33;100.00
72950;BME280;64868;45.710;9.590;2023-09-19T03:07:18;98636.53;;;18.38;99.78
72950;BME280;64868;45.710;9.590;2023-09-19T03:09:50;98632.72;;;18.31;99.66
72950;BME280;64868;45.710;9.590;2023-09-19T03:12:23;98636.84;;;18.27;99.76
72950;BME280;64868;45.710;9.590;2023-09-19T03:14:55;98631.16;;;18.29;100.00
72950;BME280;64868;45.710;9.590;2023-09-19T03:17:28;98627.72;;;18.18;100.00
72950;BME280;64868;45.710;9.590;2023-09-19T03:20:01;98628.56;;;18.19;99.64
72950;BME280;64868;45.710;9.590;2023-09-19T03:22:33;98629.09;;;18.22;99.15
72950;BME280;64868;45.710;9.590;2023-09-19T03:25:06;98624.25;;;18.24;98.90
72950;BME280;64868;45.710;9.590;2023-09-19T03:27:36;98616.81;;;18.17;99.05
72950;BME280;64868;45.710;9.590;2023-09-19T03:30:07;98624.56;;;18.13;99.94
72950;BME280;64868;45.710;9.590;2023-09-19T03:32:49;98608.88;;;18.06;99.49
72950;BME280;64868;45.710;9.590;2023-09-19T03:35:22;98612.47;;;18.06;99.54
72950;BME280;64868;45.710;9.590;2023-09-19T03:37:49;98599.22;;;18.02;99.66
72950;BME280;64868;45.710;9.590;2023-09-19T03:40:22;98610.56;;;17.98;99.96
72950;BME280;64868;45.710;9.590;2023-09-19T03:42:55;98611.28;;;18.01;100.00
72950;BME280;64868;45.710;9.590;2023-09-19T03:45:28;98611.81;;;17.96;100.00
72950;BME280;64868;45.710;9.590;2023-09-19T03:47:57;98608.84;;;17.97;99.78
72950;BME280;64868;45.710;9.590;2023-09-19T03:50:30;98606.75;;;17.91;100.00
72950;BME280;64868;45.710;9.590;2023-09-19T03:53:03;98613.31;;;17.90;99.92
72950;BME280;64868;45.710;9.590;2023-09-19T03:55:36;98615.41;;;17.88;100.00
72950;BME280;64868;45.710;9.590;2023-09-19T03:58:04;98607.06;;;17.80;100.00
72950;BME280;64868;45.710;9.590;2023-09-19T04:00:37;98608.50;;;17.84;100.00
72950;BME280;64868;45.710;9.590;2023-09-19T04:03:10;98600.22;;;17.84;99.96
72950;BME280;64868;45.710;9.590;2023-09-19T04:05:49;98611.59;;;17.89;99.89
72950;BME280;64868;45.710;9.590;2023-09-19T04:08:19;98609.53;;;17.91;99.63
72950;BME280;64868;45.710;9.590;2023-09-19T04:10:49;98609.50;;;17.83;99.45
72950;BME280;64868;45.710;9.590;2023-09-19T04:13:22;98618.16;;;17.96;98.60
72950;BME280;64868;45.710;9.590;2023-09-19T04:15:50;98615.03;;;17.91;99.23
72950;BME280;64868;45.710;9.590;2023-09-19T04:18:22;98598.66;;;17.82;98.62
72950;BME280;64868;45.710;9.590;2023-09-19T04:20:58;98610.53;;;17.82;98.92
72950;BME280;64868;45.710;9.590;2023-09-19T04:23:31;98613.47;;;17.81;99.08
72950;BME280;64868;45.710;9.590;2023-09-19T04:26:03;98621.22;;;17.77;99.65
72950;BME280;64868;45.710;9.590;2023-09-19T04:28:36;98639.41;;;18.04;97.08
72950;BME280;64868;45.710;9.590;2023-09-19T04:31:06;98629.84;;;17.82;98.81
72950;BME280;64868;45.710;9.590;2023-09-19T04:33:39;98636.56;;;17.80;98.92
72950;BME280;64868;45.710;9.590;2023-09-19T04:36:11;98644.69;;;17.81;98.95
72950;BME280;64868;45.710;9.590;2023-09-19T04:38:40;98634.44;;;17.73;98.88
72950;BME280;64868;45.710;9.590;2023-09-19T04:41:13;98647.59;;;17.80;98.78
72950;BME280;64868;45.710;9.590;2023-09-19T04:43:45;98652.78;;;17.83;99.01
72950;BME280;64868;45.710;9.590;2023-09-19T04:46:18;98645.69;;;17.80;98.93
72950;BME280;64868;45.710;9.590;2023-09-19T04:48:48;98661.75;;;17.85;99.10
72950;BME280;64868;45.710;9.590;2023-09-19T04:51:19;98656.25;;;17.85;99.10
72950;BME280;64868;45.710;9.590;2023-09-19T04:53:51;98654.50;;;17.84;99.32
72950;BME280;64868;45.710;9.590;2023-09-19T04:56:21;98671.41;;;17.81;99.75
72950;BME280;64868;45.710;9.590;2023-09-19T04:58:54;98664.84;;;17.82;99.44
72950;BME280;64868;45.710;9.590;2023-09-19T05:01:27;98665.00;;;17.80;99.99
72950;BME280;64868;45.710;9.590;2023-09-19T05:03:57;98669.50;;;17.81;99.87
72950;BME280;64868;45.710;9.590;2023-09-19T05:06:30;98674.31;;;17.79;99.59
72950;BME280;64868;45.710;9.590;2023-09-19T05:09:02;98682.06;;;17.84;99.31
72950;BME280;64868;45.710;9.590;2023-09-19T05:11:35;98681.75;;;17.87;99.31
72950;BME280;64868;45.710;9.590;2023-09-19T05:14:08;98681.22;;;17.91;98.76
72950;BME280;64868;45.710;9.590;2023-09-19T05:16:41;98691.59;;;17.97;98.33
72950;BME280;64868;45.710;9.590;2023-09-19T05:19:14;98685.06;;;17.98;97.56
72950;BME280;64868;45.710;9.590;2023-09-19T05:21:46;98682.28;;;17.98;96.85
72950;BME280;64868;45.710;9.590;2023-09-19T05:24:17;98677.31;;;18.02;97.06
72950;BME280;64868;45.710;9.590;2023-09-19T05:26:47;98686.50;;;18.19;95.50
72950;BME280;64868;45.710;9.590;2023-09-19T05:29:17;98671.31;;;18.15;95.77
72950;BME280;64868;45.710;9.590;2023-09-19T05:31:47;98672.72;;;18.19;95.30
72950;BME280;64868;45.710;9.590;2023-09-19T05:34:20;98682.19;;;18.24;94.56
72950;BME280;64868;45.710;9.590;2023-09-19T05:36:50;98674.97;;;18.23;94.33
72950;BME280;64868;45.710;9.590;2023-09-19T05:39:21;98684.13;;;18.40;93.59
72950;BME280;64868;45.710;9.590;2023-09-19T05:41:54;98678.28;;;18.52;90.95
72950;BME280;64868;45.710;9.590;2023-09-19T05:44:27;98677.75;;;18.48;91.39
72950;BME280;64868;45.710;9.590;2023-09-19T05:46:59;98682.06;;;18.59;90.78
72950;BME280;64868;45.710;9.590;2023-09-19T05:49:32;98695.03;;;18.66;89.99
72950;BME280;64868;45.710;9.590;2023-09-19T05:52:05;98694.19;;;18.74;90.37
72950;BME280;64868;45.710;9.590;2023-09-19T05:54:32;98694.72;;;18.78;89.39
72950;BME280;64868;45.710;9.590;2023-09-19T05:57:05;98705.09;;;18.92;89.11
72950;BME280;64868;45.710;9.590;2023-09-19T05:59:37;98701.78;;;18.96;88.55
72950;BME280;64868;45.710;9.590;2023-09-19T06:02:08;98705.94;;;19.09;88.23
72950;BME280;64868;45.710;9.590;2023-09-19T06:04:39;98715.94;;;19.26;87.19
72950;BME280;64868;45.710;9.590;2023-09-19T06:07:11;98721.09;;;19.45;86.30
72950;BME280;64868;45.710;9.590;2023-09-19T06:09:41;98710.69;;;19.56;85.09
72950;BME280;64868;45.710;9.590;2023-09-19T06:12:14;98727.59;;;19.85;83.92
72950;BME280;64868;45.710;9.590;2023-09-19T06:14:47;98725.75;;;20.09;81.49
72950;BME280;64868;45.710;9.590;2023-09-19T06:17:20;98723.50;;;20.12;81.83
72950;BME280;64868;45.710;9.590;2023-09-19T06:19:52;98719.22;;;20.33;82.27
72950;BME280;64868;45.710;9.590;2023-09-19T06:22:20;98727.47;;;20.49;79.94
72950;BME280;64868;45.710;9.590;2023-09-19T06:24:53;98730.22;;;20.80;79.50
72950;BME280;64868;45.710;9.590;2023-09-19T06:27:26;98729.38;;;20.95;77.22
72950;BME280;64868;45.710;9.590;2023-09-19T06:29:56;98707.34;;;21.01;78.06
72950;BME280;64868;45.710;9.590;2023-09-19T06:32:32;98715.75;;;21.31;76.95
72950;BME280;64868;45.710;9.590;2023-09-19T06:35:05;98724.44;;;21.80;75.28
72950;BME280;64868;45.710;9.590;2023-09-19T06:37:38;98724.44;;;22.25;73.33
72950;BME280;64868;45.710;9.590;2023-09-19T06:40:11;98721.03;;;23.23;68.47
72950;BME280;64868;45.710;9.590;2023-09-19T06:42:52;98737.88;;;29.22;49.55
72950;BME280;64868;45.710;9.590;2023-09-19T06:45:22;98747.06;;;34.51;37.20
72950;BME280;64868;45.710;9.590;2023-09-19T06:47:53;98743.97;;;32.19;39.47
72950;BME280;64868;45.710;9.590;2023-09-19T06:50:27;98740.97;;;30.85;42.01
72950;BME280;64868;45.710;9.590;2023-09-19T06:52:58;98748.28;;;33.32;36.76
72950;BME280;64868;45.710;9.590;2023-09-19T06:55:29;98756.38;;;32.57;37.61
72950;BME280;64868;45.710;9.590;2023-09-19T06:58:01;98761.28;;;33.87;34.58
72950;BME280;64868;45.710;9.590;2023-09-19T07:00:34;98761.34;;;36.37;30.79
72950;BME280;64868;45.710;9.590;2023-09-19T07:03:08;98773.69;;;37.96;28.36
72950;BME280;64868;45.710;9.590;2023-09-19T07:05:41;98781.03;;;38.65;27.26
72950;BME280;64868;45.710;9.590;2023-09-19T07:08:14;98790.19;;;38.62;26.83
72950;BME280;64868;45.710;9.590;2023-09-19T07:10:46;98788.25;;;39.06;25.76
72950;BME280;64868;45.710;9.590;2023-09-19T07:13:20;98774.53;;;40.07;24.90
72950;BME280;64868;45.710;9.590;2023-09-19T07:15:50;98786.84;;;41.15;23.20
72950;BME280;64868;45.710;9.590;2023-09-19T07:18:20;98797.03;;;41.85;22.56
72950;BME280;64868;45.710;9.590;2023-09-19T07:20:50;98794.88;;;42.35;21.85
72950;BME280;64868;45.710;9.590;2023-09-19T07:23:23;98799.72;;;42.26;21.67
72950;BME280;64868;45.710;9.590;2023-09-19T07:25:58;98806.63;;;42.70;21.42
72950;BME280;64868;45.710;9.590;2023-09-19T07:28:31;98807.13;;;43.52;20.27
72950;BME280;64868;45.710;9.590;2023-09-19T07:31:04;98802.97;;;43.92;19.75
72950;BME280;64868;45.710;9.590;2023-09-19T07:33:37;98803.13;;;43.30;20.55
72950;BME280;64868;45.710;9.590;2023-09-19T07:36:09;98803.13;;;43.96;19.70
72950;BME280;64868;45.710;9.590;2023-09-19T07:38:42;98809.25;;;44.94;18.80
72950;BME280;64868;45.710;9.590;2023-09-19T07:41:12;98809.69;;;45.43;18.05
72950;BME280;64868;45.710;9.590;2023-09-19T07:43:45;98808.66;;;45.77;17.71
72950;BME280;64868;45.710;9.590;2023-09-19T07:46:17;98812.81;;;46.09;17.26
72950;BME280;64868;45.710;9.590;2023-09-19T07:48:46;98819.91;;;47.23;16.61
72950;BME280;64868;45.710;9.590;2023-09-19T07:51:18;98826.53;;;47.12;16.39
72950;BME280;64868;45.710;9.590;2023-09-19T07:53:51;98823.47;;;46.84;16.33
72950;BME280;64868;45.710;9.590;2023-09-19T07:56:23;98825.22;;;46.43;17.09
72950;BME280;64868;45.710;9.590;2023-09-19T07:58:54;98828.28;;;46.92;16.11
72950;BME280;64868;45.710;9.590;2023-09-19T08:01:25;98820.94;;;48.05;15.27
72950;BME280;64868;45.710;9.590;2023-09-19T08:03:57;98830.03;;;48.31;15.32
72950;BME280;64868;45.710;9.590;2023-09-19T08:06:27;98813.88;;;48.58;14.87
72950;BME280;64868;45.710;9.590;2023-09-19T08:09:00;98830.03;;;45.37;17.44
72950;BME280;64868;45.710;9.590;2023-09-19T08:11:37;98827.84;;;47.26;15.86
72950;BME280;64868;45.710;9.590;2023-09-19T08:14:09;98827.59;;;48.89;14.53
72950;BME280;64868;45.710;9.590;2023-09-19T08:16:41;98825.81;;;48.85;14.67
72950;BME280;64868;45.710;9.590;2023-09-19T08:19:14;98831.44;;;49.41;14.14
72950;BME280;64868;45.710;9.590;2023-09-19T08:21:49;98821.00;;;50.84;12.91
72950;BME280;64868;45.710;9.590;2023-09-19T08:24:17;98840.72;;;50.95;12.91
72950;BME280;64868;45.710;9.590;2023-09-19T08:26:49;98837.56;;;51.03;12.76
72950;BME280;64868;45.710;9.590;2023-09-19T08:29:23;98825.66;;;50.47;13.09
72950;BME280;64868;45.710;9.590;2023-09-19T08:31:58;98828.69;;;50.34;13.45
72950;BME280;64868;45.710;9.590;2023-09-19T08:34:30;98836.50;;;49.95;13.42
72950;BME280;64868;45.710;9.590;2023-09-19T08:37:03;98831.47;;;50.11;13.63
72950;BME280;64868;45.710;9.590;2023-09-19T08:39:36;98837.97;;;49.70;13.56
72950;BME280;64868;45.710;9.590;2023-09-19T08:42:08;98826.22;;;50.75;13.06
72950;BME280;64868;45.710;9.590;2023-09-19T08:44:40;98844.09;;;51.66;12.20
72950;BME280;64868;45.710;9.590;2023-09-19T08:47:13;98841.00;;;52.08;12.48
72950;BME280;64868;45.710;9.590;2023-09-19T08:50:04;98845.56;;;53.07;11.93
72950;BME280;64868;45.710;9.590;2023-09-19T08:52:48;98827.63;;;51.04;12.90
72950;BME280;64868;45.710;9.590;2023-09-19T08:55:25;98832.59;;;50.42;13.26
72950;BME280;64868;45.710;9.590;2023-09-19T08:58:06;98834.53;;;51.92;12.08
72950;BME280;64868;45.710;9.590;2023-09-19T09:00:38;98832.94;;;50.79;12.85
72950;BME280;64868;45.710;9.590;2023-09-19T09:03:13;98842.41;;;50.96;13.60
72950;BME280;64868;45.710;9.590;2023-09-19T09:05:45;98839.66;;;52.32;12.30
72950;BME280;64868;45.710;9.590;2023-09-19T09:08:19;98837.47;;;51.42;12.85
72950;BME280;64868;45.710;9.590;2023-09-19T09:10:51;98839.75;;;52.09;12.52
72950;BME280;64868;45.710;9.590;2023-09-19T09:13:23;98825.44;;;51.21;12.44
72950;BME280;64868;45.710;9.590;2023-09-19T09:15:56;98815.44;;;50.76;13.15
72950;BME280;64868;45.710;9.590;2023-09-19T09:18:30;98822.38;;;48.51;14.42
72950;BME280;64868;45.710;9.590;2023-09-19T09:21:02;98823.41;;;50.01;13.93
72950;BME280;64868;45.710;9.590;2023-09-19T09:23:32;98827.75;;;50.89;13.04
72950;BME280;64868;45.710;9.590;2023-09-19T09:26:02;98823.09;;;49.87;13.46
72950;BME280;64868;45.710;9.590;2023-09-19T09:28:35;98823.78;;;49.33;14.61
72950;BME280;64868;45.710;9.590;2023-09-19T09:31:11;98825.78;;;49.80;14.05
72950;BME280;64868;45.710;9.590;2023-09-19T09:33:55;98817.97;;;49.33;14.33
72950;BME280;64868;45.710;9.590;2023-09-19T09:36:40;98829.69;;;50.42;14.11
72950;BME280;64868;45.710;9.590;2023-09-19T09:39:11;98812.50;;;50.14;14.22
72950;BME280;64868;45.710;9.590;2023-09-19T09:41:54;57837.59;;;-146.00;100.00
72950;BME280;64868;45.710;9.590;2023-09-19T09:44:25;57837.59;;;-146.00;100.00
72950;BME280;64868;45.710;9.590;2023-09-19T09:46:55;57837.59;;;-146.00;100.00
72950;BME280;64868;45.710;9.590;2023-09-19T09:49:49;57837.59;;;-146.00;100.00
72950;BME280;64868;45.710;9.590;2023-09-19T09:52:24;57837.59;;;-146.00;100.00
72950;BME280;64868;45.710;9.590;2023-09-19T09:55:05;57837.59;;;-146.00;100.00
72950;BME280;64868;45.710;9.590;2023-09-19T09:57:38;57837.59;;;-146.00;100.00
72950;BME280;64868;45.710;9.590;2023-09-19T10:00:13;57837.59;;;-146.00;100.00
72950;BME280;64868;45.710;9.590;2023-09-19T10:02:43;57837.59;;;-146.00;100.00
72950;BME280;64868;45.710;9.590;2023-09-19T10:05:18;57837.59;;;-146.00;100.00
72950;BME280;64868;45.710;9.590;2023-09-19T10:07:58;57837.59;;;-146.00;100.00
72950;BME280;64868;45.710;9.590;2023-09-19T10:10:43;57837.59;;;-146.00;100.00
72950;BME280;64868;45.710;9.590;2023-09-19T10:13:16;57837.59;;;-146.00;100.00
72950;BME280;64868;45.710;9.590;2023-09-19T10:15:50;57837.59;;;-146.00;100.00
72950;BME280;64868;45.710;9.590;2023-09-19T10:18:26;57837.59;;;-146.00;100.00
72950;BME280;64868;45.710;9.590;2023-09-19T10:20:59;57837.59;;;-146.00;100.00
72950;BME280;64868;45.710;9.590;2023-09-19T10:23:34;57837.59;;;-146.00;100.00
72950;BME280;64868;45.710;9.590;2023-09-19T10:26:07;57837.59;;;-146.00;100.00
72950;BME280;64868;45.710;9.590;2023-09-19T10:28:37;57837.59;;;-146.00;100.00
72950;BME280;64868;45.710;9.590;2023-09-19T10:31:10;57837.59;;;-146.00;100.00
72950;BME280;64868;45.710;9.590;2023-09-19T10:33:45;57837.59;;;-146.00;100.00
72950;BME280;64868;45.710;9.590;2023-09-19T10:36:20;57837.59;;;-146.00;100.00
72950;BME280;64868;45.710;9.590;2023-09-19T10:38:55;57837.59;;;-146.00;100.00
72950;BME280;64868;45.710;9.590;2023-09-19T10:41:27;57837.59;;;-146.00;100.00
72950;BME280;64868;45.710;9.590;2023-09-19T10:43:59;57837.59;;;-146.00;100.00
72950;BME280;64868;45.710;9.590;2023-09-19T10:46:37;57837.59;;;-146.00;100.00
72950;BME280;64868;45.710;9.590;2023-09-19T10:49:13;57837.59;;;-146.00;100.00
72950;BME280;64868;45.710;9.590;2023-09-19T10:51:46;57837.59;;;-146.00;100.00
72950;BME280;64868;45.710;9.590;2023-09-19T10:54:21;57837.59;;;-146.00;100.00
72950;BME280;64868;45.710;9.590;2023-09-19T10:56:56;57837.59;;;-146.00;100.00
72950;BME280;64868;45.710;9.590;2023-09-19T10:59:29;57837.59;;;-146.00;100.00
72950;BME280;64868;45.710;9.590;2023-09-19T11:02:17;57837.59;;;-146.00;100.00
72950;BME280;64868;45.710;9.590;2023-09-19T11:04:47;57837.59;;;-146.00;100.00
72950;BME280;64868;45.710;9.590;2023-09-19T11:07:20;57837.59;;;-146.00;100.00
72950;BME280;64868;45.710;9.590;2023-09-19T11:09:52;57837.59;;;-146.00;100.00
72950;BME280;64868;45.710;9.590;2023-09-19T11:15:09;57837.59;;;-146.00;100.00
72950;BME280;64868;45.710;9.590;2023-09-19T11:17:42;57837.59;;;-146.00;100.00
72950;BME280;64868;45.710;9.590;2023-09-19T11:20:16;57837.59;;;-146.00;100.00
72950;BME280;64868;45.710;9.590;2023-09-19T11:25:44;57837.59;;;-146.00;100.00
72950;BME280;64868;45.710;9.590;2023-09-19T11:28:28;57837.59;;;-146.00;100.00
72950;BME280;64868;45.710;9.590;2023-09-19T11:31:01;57837.59;;;-146.00;100.00
72950;BME280;64868;45.710;9.590;2023-09-19T11:36:57;57837.59;;;-146.00;100.00
72950;BME280;64868;45.710;9.590;2023-09-19T11:39:29;57837.59;;;-146.00;100.00
72950;BME280;64868;45.710;9.590;2023-09-19T11:42:02;57837.59;;;-146.00;100.00
72950;BME280;64868;45.710;9.590;2023-09-19T11:44:51;57837.59;;;-146.00;100.00
72950;BME280;64868;45.710;9.590;2023-09-19T11:47:25;57837.59;;;-146.00;100.00
72950;BME280;64868;45.710;9.590;2023-09-19T11:49:59;57837.59;;;-146.00;100.00
72950;BME280;64868;45.710;9.590;2023-09-19T11:52:34;57837.59;;;-146.00;100.00
72950;BME280;64868;45.710;9.590;2023-09-19T11:55:07;57837.59;;;-146.00;100.00
72950;BME280;64868;45.710;9.590;2023-09-19T11:57:38;57837.59;;;-146.00;100.00
72950;BME280;64868;45.710;9.590;2023-09-19T12:00:17;57837.59;;;-146.00;100.00
72950;BME280;64868;45.710;9.590;2023-09-19T12:02:53;57837.59;;;-146.00;100.00
72950;BME280;64868;45.710;9.590;2023-09-19T12:05:33;57837.59;;;-146.00;100.00
72950;BME280;64868;45.710;9.590;2023-09-19T12:08:07;57837.59;;;-146.00;100.00
72950;BME280;64868;45.710;9.590;2023-09-19T12:10:53;57837.59;;;-146.00;100.00
72950;BME280;64868;45.710;9.590;2023-09-19T12:13:25;57837.59;;;-146.00;100.00
72950;BME280;64868;45.710;9.590;2023-09-19T12:16:00;57837.59;;;-146.00;100.00
72950;BME280;64868;45.710;9.590;2023-09-19T12:18:32;57837.59;;;-146.00;100.00
72950;BME280;64868;45.710;9.590;2023-09-19T12:21:03;57837.59;;;-146.00;100.00
72950;BME280;64868;45.710;9.590;2023-09-19T12:23:30;57837.59;;;-146.00;100.00
72950;BME280;64868;45.710;9.590;2023-09-19T12:26:05;57837.59;;;-146.00;100.00
72950;BME280;64868;45.710;9.590;2023-09-19T12:28:43;57837.59;;;-146.00;100.00
72950;BME280;64868;45.710;9.590;2023-09-19T12:31:17;57837.59;;;-146.00;100.00
72950;BME280;64868;45.710;9.590;2023-09-19T12:33:54;57837.59;;;-146.00;100.00
72950;BME280;64868;45.710;9.590;2023-09-19T12:36:25;57837.59;;;-146.00;100.00
72950;BME280;64868;45.710;9.590;2023-09-19T12:38:57;57837.59;;;-146.00;100.00
72950;BME280;64868;45.710;9.590;2023-09-19T12:41:30;57837.59;;;-146.00;100.00
72950;BME280;64868;45.710;9.590;2023-09-19T12:44:01;57837.59;;;-146.00;100.00
72950;BME280;64868;45.710;9.590;2023-09-19T12:46:33;57837.59;;;-146.00;100.00
72950;BME280;64868;45.710;9.590;2023-09-19T12:49:24;57837.59;;;-146.00;100.00
72950;BME280;64868;45.710;9.590;2023-09-19T12:51:57;57837.59;;;-146.00;100.00
72950;BME280;64868;45.710;9.590;2023-09-19T12:54:40;57837.59;;;-146.00;100.00
72950;BME280;64868;45.710;9.590;2023-09-19T12:57:07;57837.59;;;-146.00;100.00
72950;BME280;64868;45.710;9.590;2023-09-19T12:59:37;57837.59;;;-146.00;100.00
72950;BME280;64868;45.710;9.590;2023-09-19T13:02:10;57837.59;;;-146.00;100.00
72950;BME280;64868;45.710;9.590;2023-09-19T13:04:54;57837.59;;;-146.00;100.00
72950;BME280;64868;45.710;9.590;2023-09-19T13:07:46;57837.59;;;-146.00;100.00
72950;BME280;64868;45.710;9.590;2023-09-19T13:10:19;98692.88;;;30.11;42.50
72950;BME280;64868;45.710;9.590;2023-09-19T13:12:53;98685.22;;;30.18;42.81
72950;BME280;64868;45.710;9.590;2023-09-19T13:15:24;98688.16;;;29.64;43.30
72950;BME280;64868;45.710;9.590;2023-09-19T13:17:57;57837.59;;;-146.00;100.00
72950;BME280;64868;45.710;9.590;2023-09-19T13:20:30;57837.59;;;-146.00;100.00
72950;BME280;64868;45.710;9.590;2023-09-19T13:23:02;57837.59;;;-146.00;100.00
72950;BME280;64868;45.710;9.590;2023-09-19T13:25:37;57837.59;;;-146.00;100.00
72950;BME280;64868;45.710;9.590;2023-09-19T13:28:10;57837.59;;;-146.00;100.00
72950;BME280;64868;45.710;9.590;2023-09-19T13:30:40;57837.59;;;-146.00;100.00
72950;BME280;64868;45.710;9.590;2023-09-19T13:33:14;57837.59;;;-146.00;100.00
72950;BME280;64868;45.710;9.590;2023-09-19T13:35:50;57837.59;;;-146.00;100.00
72950;BME280;64868;45.710;9.590;2023-09-19T13:38:21;57837.59;;;-146.00;100.00